Latest Weather Observations for Troughton Island

IDD60801

Issued at 4:01 pm CST Friday 30 September 2016 (issued every 30 minutes, with the page automatically refreshed every 10 minutes)

About weather observations | Map of weather stations | Latest weather observations for NT | Other Formats
Station Details ID: 001007 Name: TROUGHTON ISLAND Lat: -13.75 Lon: 126.15 Height: 6.0 m
Data from the previous 72 hours. | See also: Recent months at Troughton Island
Date/Time
CST
Temp
°C
App
Temp
°C
Dew
Point
°C
Rel
Hum
%
Delta-T
°C
Wind Press
QNH
hPa
Press
MSL
hPa
Rain since
9am
mm
Dir  Spd
km/h
Gust
km/h
Spd
kts
Gust
kts
30/04:00pm 31.8 34.0 24.9 67 4.9 NW 22 26 12 14 1006.8 1006.7 0.0
30/03:30pm 31.6 34.0 25.2 69 4.5 NW 22 26 12 14 1006.8 1006.7 0.0
30/03:00pm 31.7 34.4 25.1 68 4.7 NW 20 26 11 14 1007.4 1007.3 0.0
30/02:30pm 31.5 34.2 25.1 69 4.5 NW 20 24 11 13 1007.8 1007.7 0.0
30/02:00pm 31.4 34.6 25.0 69 4.5 WNW 17 20 9 11 1008.2 1008.1 0.0
30/01:30pm 31.3 34.5 24.9 69 4.5 WNW 17 20 9 11 1008.5 1008.4 0.0
30/01:00pm 31.0 34.5 24.9 70 4.3 WNW 15 19 8 10 1009.0 1008.9 0.0
30/12:30pm 31.5 35.2 25.1 69 4.5 W 15 17 8 9 1009.4 1009.3 0.0
30/12:00pm 31.2 34.5 25.1 70 4.3 W 17 19 9 10 1009.8 1009.7 0.0
30/11:30am 30.9 34.4 24.8 70 4.3 W 15 19 8 10 1010.1 1010.0 0.0
30/11:00am 31.1 34.0 24.5 68 4.6 W 17 19 9 10 1010.3 1010.2 0.0
30/10:30am 31.0 34.3 25.1 71 4.2 W 17 20 9 11 1010.4 1010.3 0.0
30/10:00am 30.9 33.9 25.3 72 4.0 WSW 19 22 10 12 1010.6 1010.5 0.0
30/09:30am 30.6 33.6 25.2 73 3.8 W 19 20 10 11 1010.4 1010.3 0.0
30/09:00am 29.7 32.4 25.0 76 3.3 WSW 20 24 11 13 1010.3 1010.2 0.0
30/08:30am 29.4 32.3 25.4 79 2.8 W 20 24 11 13 1009.8 1009.7 0.0
30/08:00am 29.0 32.0 25.2 80 2.7 W 19 22 10 12 1009.5 1009.4 0.0
30/07:30am 28.3 31.0 25.1 83 2.2 W 20 26 11 14 1009.2 1009.1 0.0
30/07:00am 28.0 30.7 24.8 83 2.2 WNW 19 22 10 12 1009.1 1009.0 0.0
30/06:30am 28.0 30.7 24.8 83 2.2 WNW 19 22 10 12 1009.1 1009.0 0.0
30/06:00am 28.1 31.0 25.1 84 2.1 WNW 19 20 10 11 1008.9 1008.8 0.0
30/05:30am 28.2 30.9 25.0 83 2.2 WNW 20 24 11 13 1008.6 1008.5 0.0
30/05:00am 28.2 30.1 25.0 83 2.2 WNW 24 28 13 15 1008.4 1008.3 0.0
30/04:30am 28.3 30.4 25.3 84 2.1 WNW 24 26 13 14 1008.3 1008.2 0.0
30/04:00am 28.3 30.8 25.3 84 2.1 WNW 22 26 12 14 1008.3 1008.2 0.0
30/03:30am 28.3 31.1 25.3 84 2.1 WNW 20 24 11 13 1008.5 1008.4 0.0
30/03:00am 28.3 30.8 25.3 84 2.1 WNW 22 26 12 14 1008.8 1008.7 0.0
30/02:30am 28.3 31.3 25.5 85 2.0 WNW 20 22 11 12 1009.0 1008.9 0.0
30/02:00am 28.4 31.3 25.4 84 2.1 WNW 20 22 11 12 1009.2 1009.1 0.0
30/01:30am 28.5 31.7 25.5 84 2.1 WNW 19 20 10 11 1009.4 1009.3 0.0
30/01:00am 28.5 31.7 25.5 84 2.1 WNW 19 22 10 12 1009.5 1009.4 0.0
30/12:30am 28.6 32.6 25.6 84 2.1 WNW 15 17 8 9 1009.9 1009.8 0.0
30/12:00am 28.6 33.1 25.8 85 2.0 WNW 13 17 7 9 1010.2 1010.1 0.0
 
Date/Time
CST
Temp
°C
App
Temp
°C
Dew
Point
°C
Rel
Hum
%
Delta-T
°C
Wind Press
QNH
hPa
Press
MSL
hPa
Rain since
9am
mm
Dir  Spd
km/h
Gust
km/h
Spd
kts
Gust
kts
29/11:30pm 28.5 32.4 25.5 84 2.1 NW 15 17 8 9 1010.2 1010.1 0.0
29/11:00pm 28.6 32.7 25.8 85 2.0 NW 15 17 8 9 1010.1 1010.0 0.0
29/10:30pm 28.7 32.5 25.9 85 2.0 NW 17 19 9 10 1009.9 1009.8 0.0
29/10:00pm 28.7 32.8 25.7 84 2.1 NW 15 17 8 9 1009.8 1009.7 0.0
29/09:30pm 28.7 32.4 25.7 84 2.1 NW 17 19 9 10 1009.4 1009.3 0.0
29/09:00pm 28.7 32.2 25.5 83 2.3 NW 17 20 9 11 1009.0 1008.9 0.0
29/08:30pm 28.7 31.9 25.5 83 2.3 NW 19 24 10 13 1008.6 1008.5 0.0
29/08:00pm 28.8 31.3 25.4 82 2.4 NW 22 26 12 14 1007.8 1007.7 0.0
29/07:30pm 28.9 31.4 25.3 81 2.5 NW 22 26 12 14 1007.4 1007.3 0.0
29/07:00pm 29.1 30.9 25.5 81 2.5 NW 26 32 14 17 1006.9 1006.8 0.0
29/06:30pm 29.7 32.0 25.7 79 2.8 NW 24 30 13 16 1006.6 1006.5 0.0
29/06:00pm 30.3 32.3 25.8 77 3.2 NW 26 32 14 17 1006.4 1006.3 0.0
29/05:30pm 31.0 33.4 25.8 74 3.7 NW 24 32 13 17 1006.3 1006.2 0.0
29/05:00pm 31.2 33.0 25.5 71 4.0 NW 26 30 14 16 1006.3 1006.2 0.0
29/04:30pm 30.8 32.8 25.2 72 4.0 NW 24 30 13 16 1006.5 1006.4 0.0
29/04:00pm 31.5 33.8 25.6 71 4.2 NW 24 28 13 15 1006.7 1006.6 0.0
29/03:30pm 31.3 33.8 25.4 71 4.2 NW 22 26 12 14 1006.8 1006.7 0.0
29/03:00pm 31.8 34.8 25.6 69 4.4 NW 20 26 11 14 1007.1 1007.0 0.0
29/02:30pm 32.1 35.5 25.9 70 4.4 NW 19 22 10 12 1007.6 1007.5 0.0
29/02:00pm 31.4 34.6 25.5 71 4.2 NW 19 20 10 11 1007.9 1007.8 0.0
29/01:30pm 31.3 34.5 25.6 71 4.1 NW 19 20 10 11 1008.2 1008.1 0.0
29/01:00pm 31.7 35.4 25.8 71 4.2 NW 17 20 9 11 1008.9 1008.8 0.0
29/12:30pm 31.6 35.9 25.5 70 4.3 WNW 13 17 7 9 1009.6 1009.5 0.0
29/12:00pm 31.2 35.5 25.5 71 4.0 WNW 13 15 7 8 1010.0 1009.9 0.0
29/11:30am 31.1 35.2 25.2 71 4.2 W 13 15 7 8 1010.5 1010.4 0.0
29/11:00am 30.8 35.5 26.1 76 3.4 W 13 17 7 9 1010.8 1010.7 0.0
29/10:30am 30.8 35.5 25.6 74 3.7 W 11 15 6 8 1010.9 1010.8 0.0
29/10:00am 30.7 35.0 25.5 74 3.7 WSW 13 17 7 9 1011.1 1011.0 0.0
29/09:30am 30.3 34.5 25.4 75 3.5 WSW 13 15 7 8 1011.0 1010.9 0.0
29/09:00am 30.0 33.9 25.5 77 3.2 WSW 15 19 8 10 1010.8 1010.7 0.0
29/08:30am 28.9 32.3 25.3 81 2.5 W 17 20 9 11 1010.6 1010.5 0.0
29/08:00am 28.7 31.5 25.3 82 2.4 W 20 22 11 12 1010.4 1010.3 0.0
29/07:30am 28.3 31.3 25.3 84 2.1 W 19 22 10 12 1010.0 1009.9 0.0
29/07:00am 27.9 30.7 25.3 86 1.8 W 20 22 11 12 1009.5 1009.4 0.0
29/06:30am 27.7 31.1 25.3 87 1.7 WNW 17 20 9 11 1009.2 1009.1 0.0
29/06:00am 27.7 31.5 25.3 87 1.7 NW 15 19 8 10 1009.0 1008.9 0.0
29/05:30am 27.6 31.6 25.0 86 1.8 NW 13 17 7 9 1008.7 1008.6 0.0
29/05:00am 27.5 30.9 25.3 88 1.5 NW 17 19 9 10 1008.7 1008.6 0.0
29/04:30am 27.5 31.0 25.5 89 1.4 NNW 17 17 9 9 1008.7 1008.6 0.0
29/04:00am 27.5 31.4 25.5 89 1.4 NW 15 17 8 9 1008.5 1008.4 0.0
29/03:30am 27.3 31.9 25.3 89 1.4 NW 11 13 6 7 1008.6 1008.5 0.0
29/03:00am 27.7 32.5 25.7 89 1.4 NW 11 13 6 7 1008.8 1008.7 0.0
29/02:30am 27.8 32.8 25.4 87 1.7 WNW 9 11 5 6 1009.0 1008.9 0.0
29/02:00am 28.1 32.8 25.5 86 1.8 W 11 13 6 7 1009.3 1009.2 0.0
29/01:30am 28.2 32.3 25.8 87 1.7 WSW 15 17 8 9 1009.6 1009.5 0.0
29/01:00am 28.2 32.6 25.6 86 1.8 W 13 15 7 8 1009.9 1009.8 0.0
29/12:30am 28.4 33.0 26.0 87 1.7 W 13 15 7 8 1010.3 1010.2 0.0
29/12:00am 28.5 32.6 25.7 85 2.0 W 15 15 8 8 1010.5 1010.4 0.0
 
Date/Time
CST
Temp
°C
App
Temp
°C
Dew
Point
°C
Rel
Hum
%
Delta-T
°C
Wind Press
QNH
hPa
Press
MSL
hPa
Rain since
9am
mm
Dir  Spd
km/h
Gust
km/h
Spd
kts
Gust
kts
28/11:30pm 28.6 33.1 25.8 85 2.0 W 13 15 7 8 1010.6 1010.5 0.0
28/11:00pm 28.7 33.0 25.5 83 2.3 WSW 13 15 7 8 1010.7 1010.6 0.0
28/10:30pm 28.9 33.3 25.7 83 2.3 W 13 17 7 9 1010.6 1010.5 0.0
28/10:00pm 28.6 32.8 25.4 83 2.3 W 13 15 7 8 1010.2 1010.1 0.0
28/09:30pm 28.6 32.6 25.6 84 2.1 WSW 15 17 8 9 1010.1 1010.0 0.0
28/09:00pm 28.6 32.3 25.2 82 2.4 WSW 15 17 8 9 1009.8 1009.7 0.0
28/08:30pm 28.7 32.2 25.5 83 2.3 W 17 20 9 11 1009.6 1009.5 0.0
28/08:00pm 28.7 32.1 25.3 82 2.4 W 17 19 9 10 1009.4 1009.3 0.0
28/07:30pm 28.9 31.5 25.5 82 2.4 WNW 22 28 12 15 1009.0 1008.9 0.0
28/07:00pm 29.2 31.6 25.2 79 2.8 WNW 22 28 12 15 1008.5 1008.4 0.0
28/06:30pm 29.8 32.4 24.9 75 3.4 WNW 20 24 11 13 1008.4 1008.3 0.0
28/06:00pm 30.7 33.9 25.5 74 3.7 WNW 19 22 10 12 1008.5 1008.4 0.0
28/05:30pm 31.1 33.8 25.0 70 4.3 WNW 20 22 11 12 1008.3 1008.2 0.0
28/05:00pm 31.7 34.7 25.3 69 4.5 W 19 22 10 12 1008.4 1008.3 0.0
28/04:30pm 31.8 34.3 24.7 66 5.0 WNW 20 22 11 12 1008.5 1008.4 0.0
28/04:00pm 31.9 34.7 25.0 67 4.9 WNW 19 22 10 12 1008.6 1008.5 0.0
28/03:30pm 31.7 33.9 24.0 63 5.4 WNW 19 20 10 11 1008.7 1008.6 0.0
28/03:00pm 32.0 33.9 23.5 60 5.9 WNW 19 22 10 12 1009.2 1009.1 0.0
28/02:30pm 32.4 34.8 24.2 62 5.7 WNW 19 20 10 11 1009.4 1009.3 0.0
28/02:00pm 32.3 34.1 23.3 59 6.2 W 19 20 10 11 1009.7 1009.6 0.0
28/01:30pm 32.5 34.3 23.2 58 6.4 W 19 20 10 11 1010.1 1010.0 0.0
28/01:00pm 32.6 34.3 22.4 55 7.0 W 17 20 9 11 1010.6 1010.5 0.0
28/12:30pm 31.9 32.9 21.7 54 6.9 WSW 19 22 10 12 1010.9 1010.8 0.0
28/12:00pm 31.9 32.5 21.4 53 7.1 WSW 20 22 11 12 1011.2 1011.1 0.0
28/11:30am 32.0 33.2 22.1 55 6.7 WSW 19 24 10 13 1011.6 1011.5 0.0
28/11:00am 32.3 33.8 23.0 58 6.4 SW 20 24 11 13 1012.0 1011.9 0.0
28/10:30am 31.7 33.5 23.5 62 5.7 SW 20 24 11 13 1012.2 1012.1 0.0
28/10:00am 31.2 32.8 23.3 63 5.4 SW 20 24 11 13 1012.2 1012.1 0.0
28/09:30am 30.8 32.7 23.7 66 4.9 SW 20 26 11 14 1012.0 1011.9 0.0
28/09:00am 30.3 31.8 23.7 68 4.6 SW 22 26 12 14 1012.0 1011.9 0.0
28/08:30am 29.7 31.7 23.6 69 4.2 SW 19 24 10 13 1011.6 1011.5 0.0
28/08:00am 29.2 31.4 24.3 75 3.4 SW 20 24 11 13 1011.3 1011.2 0.0
28/07:30am 28.5 30.1 23.2 73 3.6 SW 20 24 11 13 1010.9 1010.8 0.0
28/07:00am 28.1 29.7 23.2 74 3.3 SW 20 24 11 13 1010.5 1010.4 0.0
28/06:30am 28.2 30.2 23.6 76 3.2 WSW 19 20 10 11 1010.2 1010.1 0.0
28/06:00am 28.1 29.6 23.0 74 3.5 WSW 20 22 11 12 1009.9 1009.8 0.0
28/05:30am 28.0 30.0 23.6 77 3.0 WSW 19 20 10 11 1009.6 1009.5 0.0
28/05:00am 28.2 30.4 24.0 78 2.9 WSW 19 22 10 12 1009.3 1009.2 0.0
28/04:30am 27.9 30.1 23.3 76 3.2 WSW 17 20 9 11 1009.2 1009.1 0.0
28/04:00am 28.1 29.9 23.2 74 3.3 WSW 19 20 10 11 1009.2 1009.1 0.0
28/03:30am 28.2 30.4 23.3 75 3.4 WSW 17 20 9 11 1009.3 1009.2 0.0
28/03:00am 28.3 30.4 23.7 76 3.2 WSW 19 20 10 11 1009.5 1009.4 0.0
28/02:30am 28.4 30.2 23.5 75 3.4 WSW 20 24 11 13 1009.9 1009.8 0.0
28/02:00am 28.5 30.1 23.2 73 3.6 WSW 20 24 11 13 1010.3 1010.2 0.0
28/01:30am 28.5 30.6 24.1 77 3.0 WSW 20 24 11 13 1010.5 1010.4 0.0
28/01:00am 28.2 30.2 24.0 78 2.9 WSW 20 24 11 13 1010.9 1010.8 0.0
28/12:30am 28.2 30.5 24.4 80 2.6 WSW 20 24 11 13 1011.0 1010.9 0.0
28/12:00am 28.4 30.9 24.8 81 2.5 WSW 20 24 11 13 1011.3 1011.2 0.0
 
Date/Time
CST
Temp
°C
App
Temp
°C
Dew
Point
°C
Rel
Hum
%
Delta-T
°C
Wind Press
QNH
hPa
Press
MSL
hPa
Rain since
9am
mm
Dir  Spd
km/h
Gust
km/h
Spd
kts
Gust
kts
27/11:30pm 28.2 30.5 24.4 80 2.6 WSW 20 24 11 13 1011.4 1011.3 0.0
27/11:00pm 28.3 30.4 24.7 81 2.5 W 22 26 12 14 1011.6 1011.5 0.0
27/10:30pm 28.4 30.1 24.6 80 2.6 WSW 24 30 13 16 1011.4 1011.3 0.0
27/10:00pm 28.5 30.3 24.9 81 2.5 W 24 28 13 15 1011.3 1011.2 0.0
27/09:30pm 28.6 30.5 25.0 81 2.5 W 24 26 13 14 1011.0 1010.9 0.0
27/09:00pm 28.6 31.1 24.8 80 2.7 W 20 26 11 14 1010.8 1010.7 0.0
27/08:30pm 28.8 31.2 25.2 81 2.5 W 22 24 12 13 1010.5 1010.4 0.0
27/08:00pm 28.8 30.8 24.6 78 2.9 W 22 24 12 13 1010.0 1009.9 0.0
27/07:30pm 28.9 31.1 24.9 79 2.8 W 22 26 12 14 1009.7 1009.6 0.0
27/07:00pm 29.0 31.0 24.6 77 3.1 WNW 22 26 12 14 1009.3 1009.2 0.0
27/06:30pm 29.5 31.2 24.6 75 3.4 WNW 24 26 13 14 1009.1 1009.0 0.0
27/06:00pm 30.2 32.7 25.3 75 3.5 WNW 22 30 12 16 1008.9 1008.8 0.0

Other Formats:

Comma delimited format used in spreadsheet applications
http://www.bom.gov.au/fwo/IDD60801/IDD60801.94102.axf

JavaScript Object Notation format (JSON) in row-major order
http://www.bom.gov.au/fwo/IDD60801/IDD60801.94102.json